sensor_id;sensor_type;location;lat;lon;timestamp;P1;durP1;ratioP1;P2;durP2;ratioP2
63945;SDS011;50122;56.330;43.838;2023-02-15T00:00:05;24.00;;;12.70;;
63945;SDS011;50122;56.330;43.838;2023-02-15T00:02:38;26.65;;;14.02;;
63945;SDS011;50122;56.330;43.838;2023-02-15T00:05:05;24.80;;;13.63;;
63945;SDS011;50122;56.330;43.838;2023-02-15T00:07:32;29.15;;;13.95;;
63945;SDS011;50122;56.330;43.838;2023-02-15T00:09:59;27.17;;;14.43;;
63945;SDS011;50122;56.330;43.838;2023-02-15T00:12:26;29.27;;;15.10;;
63945;SDS011;50122;56.330;43.838;2023-02-15T00:14:53;27.15;;;13.82;;
63945;SDS011;50122;56.330;43.838;2023-02-15T00:17:20;25.30;;;13.48;;
63945;SDS011;50122;56.330;43.838;2023-02-15T00:19:47;25.67;;;13.65;;
63945;SDS011;50122;56.330;43.838;2023-02-15T00:22:13;27.23;;;13.52;;
63945;SDS011;50122;56.330;43.838;2023-02-15T00:24:40;20.88;;;12.45;;
63945;SDS011;50122;56.330;43.838;2023-02-15T00:27:07;22.98;;;13.25;;
63945;SDS011;50122;56.330;43.838;2023-02-15T00:29:35;22.33;;;12.80;;
63945;SDS011;50122;56.330;43.838;2023-02-15T00:32:02;21.65;;;12.68;;
63945;SDS011;50122;56.330;43.838;2023-02-15T00:34:29;20.40;;;11.48;;
63945;SDS011;50122;56.330;43.838;2023-02-15T00:36:56;22.17;;;13.18;;
63945;SDS011;50122;56.330;43.838;2023-02-15T00:39:23;22.25;;;12.45;;
63945;SDS011;50122;56.330;43.838;2023-02-15T00:41:50;23.92;;;12.88;;
63945;SDS011;50122;56.330;43.838;2023-02-15T00:44:17;23.30;;;12.48;;
63945;SDS011;50122;56.330;43.838;2023-02-15T00:46:43;22.92;;;12.63;;
63945;SDS011;50122;56.330;43.838;2023-02-15T00:49:10;21.73;;;12.07;;
63945;SDS011;50122;56.330;43.838;2023-02-15T00:51:37;19.35;;;12.60;;
63945;SDS011;50122;56.330;43.838;2023-02-15T00:54:04;24.02;;;13.00;;
63945;SDS011;50122;56.330;43.838;2023-02-15T00:56:30;19.77;;;12.15;;
63945;SDS011;50122;56.330;43.838;2023-02-15T00:58:57;24.38;;;12.57;;
63945;SDS011;50122;56.330;43.838;2023-02-15T01:01:26;20.52;;;11.95;;
63945;SDS011;50122;56.330;43.838;2023-02-15T01:03:53;19.85;;;11.80;;
63945;SDS011;50122;56.330;43.838;2023-02-15T01:06:19;21.52;;;11.82;;
63945;SDS011;50122;56.330;43.838;2023-02-15T01:08:46;21.05;;;12.30;;
63945;SDS011;50122;56.330;43.838;2023-02-15T01:11:14;22.08;;;12.40;;
63945;SDS011;50122;56.330;43.838;2023-02-15T01:13:49;23.05;;;12.90;;
63945;SDS011;50122;56.330;43.838;2023-02-15T01:16:17;20.23;;;11.95;;
63945;SDS011;50122;56.330;43.838;2023-02-15T01:18:45;19.75;;;12.13;;
63945;SDS011;50122;56.330;43.838;2023-02-15T01:21:13;19.13;;;12.00;;
63945;SDS011;50122;56.330;43.838;2023-02-15T01:23:41;19.77;;;12.07;;
63945;SDS011;50122;56.330;43.838;2023-02-15T01:26:09;19.77;;;12.95;;
63945;SDS011;50122;56.330;43.838;2023-02-15T01:28:36;23.17;;;13.05;;
63945;SDS011;50122;56.330;43.838;2023-02-15T01:31:07;21.13;;;12.32;;
63945;SDS011;50122;56.330;43.838;2023-02-15T01:33:35;20.13;;;12.05;;
63945;SDS011;50122;56.330;43.838;2023-02-15T01:36:03;21.48;;;12.43;;
63945;SDS011;50122;56.330;43.838;2023-02-15T01:38:30;20.27;;;11.50;;
63945;SDS011;50122;56.330;43.838;2023-02-15T01:40:57;21.95;;;12.27;;
63945;SDS011;50122;56.330;43.838;2023-02-15T01:43:47;25.83;;;11.77;;
63945;SDS011;50122;56.330;43.838;2023-02-15T01:46:20;17.07;;;11.43;;
63945;SDS011;50122;56.330;43.838;2023-02-15T01:48:54;20.98;;;11.50;;
63945;SDS011;50122;56.330;43.838;2023-02-15T01:51:36;20.10;;;12.38;;
63945;SDS011;50122;56.330;43.838;2023-02-15T01:54:17;21.25;;;12.60;;
63945;SDS011;50122;56.330;43.838;2023-02-15T01:56:45;21.38;;;12.18;;
63945;SDS011;50122;56.330;43.838;2023-02-15T01:59:16;21.40;;;12.38;;
63945;SDS011;50122;56.330;43.838;2023-02-15T02:01:47;20.02;;;12.00;;
63945;SDS011;50122;56.330;43.838;2023-02-15T02:06:49;18.83;;;12.05;;
63945;SDS011;50122;56.330;43.838;2023-02-15T02:09:17;23.05;;;12.23;;
63945;SDS011;50122;56.330;43.838;2023-02-15T02:11:44;22.58;;;12.82;;
63945;SDS011;50122;56.330;43.838;2023-02-15T02:14:14;22.27;;;12.30;;
63945;SDS011;50122;56.330;43.838;2023-02-15T02:28:08;20.65;;;12.30;;
63945;SDS011;50122;56.330;43.838;2023-02-15T02:38:53;19.95;;;12.57;;
63945;SDS011;50122;56.330;43.838;2023-02-15T02:41:42;19.75;;;12.15;;
63945;SDS011;50122;56.330;43.838;2023-02-15T02:49:39;21.63;;;12.55;;
63945;SDS011;50122;56.330;43.838;2023-02-15T02:55:15;21.73;;;12.15;;
63945;SDS011;50122;56.330;43.838;2023-02-15T02:57:52;21.92;;;12.25;;
63945;SDS011;50122;56.330;43.838;2023-02-15T03:00:22;21.42;;;12.75;;
63945;SDS011;50122;56.330;43.838;2023-02-15T03:02:58;23.45;;;12.27;;
63945;SDS011;50122;56.330;43.838;2023-02-15T03:05:32;24.50;;;13.70;;
63945;SDS011;50122;56.330;43.838;2023-02-15T03:08:03;25.33;;;13.80;;
63945;SDS011;50122;56.330;43.838;2023-02-15T03:10:32;22.80;;;13.57;;
63945;SDS011;50122;56.330;43.838;2023-02-15T03:13:01;23.73;;;13.30;;
63945;SDS011;50122;56.330;43.838;2023-02-15T03:15:34;24.15;;;12.60;;
63945;SDS011;50122;56.330;43.838;2023-02-15T03:18:24;20.75;;;12.40;;
63945;SDS011;50122;56.330;43.838;2023-02-15T03:20:57;20.95;;;12.38;;
63945;SDS011;50122;56.330;43.838;2023-02-15T03:23:27;23.08;;;13.63;;
63945;SDS011;50122;56.330;43.838;2023-02-15T03:25:57;25.63;;;12.35;;
63945;SDS011;50122;56.330;43.838;2023-02-15T03:28:29;19.40;;;12.45;;
63945;SDS011;50122;56.330;43.838;2023-02-15T03:31:02;22.05;;;12.15;;
63945;SDS011;50122;56.330;43.838;2023-02-15T03:33:32;19.77;;;12.02;;
63945;SDS011;50122;56.330;43.838;2023-02-15T03:36:04;20.75;;;12.25;;
63945;SDS011;50122;56.330;43.838;2023-02-15T03:38:53;21.02;;;12.57;;
63945;SDS011;50122;56.330;43.838;2023-02-15T03:41:26;20.77;;;13.30;;
63945;SDS011;50122;56.330;43.838;2023-02-15T03:44:20;21.63;;;12.68;;
63945;SDS011;50122;56.330;43.838;2023-02-15T03:46:55;22.83;;;12.80;;
63945;SDS011;50122;56.330;43.838;2023-02-15T03:49:38;21.85;;;13.32;;
63945;SDS011;50122;56.330;43.838;2023-02-15T03:52:11;23.30;;;13.05;;
63945;SDS011;50122;56.330;43.838;2023-02-15T03:54:42;25.10;;;14.27;;
63945;SDS011;50122;56.330;43.838;2023-02-15T03:57:11;22.60;;;13.13;;
63945;SDS011;50122;56.330;43.838;2023-02-15T04:00:09;20.40;;;12.10;;
63945;SDS011;50122;56.330;43.838;2023-02-15T04:05:39;24.42;;;12.25;;
63945;SDS011;50122;56.330;43.838;2023-02-15T04:08:06;22.17;;;13.23;;
63945;SDS011;50122;56.330;43.838;2023-02-15T04:10:33;22.70;;;13.30;;
63945;SDS011;50122;56.330;43.838;2023-02-15T04:13:29;22.75;;;12.73;;
63945;SDS011;50122;56.330;43.838;2023-02-15T04:15:57;22.63;;;13.20;;
63945;SDS011;50122;56.330;43.838;2023-02-15T04:21:18;20.63;;;12.23;;
63945;SDS011;50122;56.330;43.838;2023-02-15T04:24:05;25.95;;;12.95;;
63945;SDS011;50122;56.330;43.838;2023-02-15T04:26:50;21.98;;;12.55;;
63945;SDS011;50122;56.330;43.838;2023-02-15T04:29:22;23.10;;;12.95;;
63945;SDS011;50122;56.330;43.838;2023-02-15T04:31:50;21.58;;;12.57;;
63945;SDS011;50122;56.330;43.838;2023-02-15T04:34:17;21.77;;;13.02;;
63945;SDS011;50122;56.330;43.838;2023-02-15T04:36:46;21.08;;;12.43;;
63945;SDS011;50122;56.330;43.838;2023-02-15T04:39:13;22.85;;;13.25;;
63945;SDS011;50122;56.330;43.838;2023-02-15T04:41:41;27.80;;;13.07;;
63945;SDS011;50122;56.330;43.838;2023-02-15T04:44:10;23.80;;;13.15;;
63945;SDS011;50122;56.330;43.838;2023-02-15T04:46:37;25.25;;;13.68;;
63945;SDS011;50122;56.330;43.838;2023-02-15T04:49:04;22.95;;;13.35;;
63945;SDS011;50122;56.330;43.838;2023-02-15T04:51:31;22.98;;;13.55;;
63945;SDS011;50122;56.330;43.838;2023-02-15T04:53:58;21.60;;;12.85;;
63945;SDS011;50122;56.330;43.838;2023-02-15T04:56:24;23.10;;;13.07;;
63945;SDS011;50122;56.330;43.838;2023-02-15T04:58:51;22.08;;;13.15;;
63945;SDS011;50122;56.330;43.838;2023-02-15T05:01:18;20.35;;;12.75;;
63945;SDS011;50122;56.330;43.838;2023-02-15T05:03:47;19.75;;;12.75;;
63945;SDS011;50122;56.330;43.838;2023-02-15T05:06:15;22.08;;;13.65;;
63945;SDS011;50122;56.330;43.838;2023-02-15T05:08:41;22.17;;;12.75;;
63945;SDS011;50122;56.330;43.838;2023-02-15T05:11:08;19.83;;;12.07;;
63945;SDS011;50122;56.330;43.838;2023-02-15T05:13:35;21.35;;;12.32;;
63945;SDS011;50122;56.330;43.838;2023-02-15T05:16:02;19.70;;;12.18;;
63945;SDS011;50122;56.330;43.838;2023-02-15T05:18:29;23.40;;;12.55;;
63945;SDS011;50122;56.330;43.838;2023-02-15T05:20:57;22.38;;;13.02;;
63945;SDS011;50122;56.330;43.838;2023-02-15T05:23:23;22.27;;;13.02;;
63945;SDS011;50122;56.330;43.838;2023-02-15T05:25:50;23.27;;;12.13;;
63945;SDS011;50122;56.330;43.838;2023-02-15T05:28:36;21.23;;;12.55;;
63945;SDS011;50122;56.330;43.838;2023-02-15T05:31:07;20.58;;;12.52;;
63945;SDS011;50122;56.330;43.838;2023-02-15T17:36:09;12.65;;;7.40;;
63945;SDS011;50122;56.330;43.838;2023-02-15T17:39:20;11.38;;;7.03;;
63945;SDS011;50122;56.330;43.838;2023-02-15T17:41:59;12.50;;;7.93;;
63945;SDS011;50122;56.330;43.838;2023-02-15T17:44:27;12.00;;;7.95;;
63945;SDS011;50122;56.330;43.838;2023-02-15T17:47:35;13.30;;;8.07;;
63945;SDS011;50122;56.330;43.838;2023-02-15T17:50:15;12.73;;;7.53;;
63945;SDS011;50122;56.330;43.838;2023-02-15T17:52:50;12.45;;;8.18;;
63945;SDS011;50122;56.330;43.838;2023-02-15T17:55:22;12.85;;;8.65;;
63945;SDS011;50122;56.330;43.838;2023-02-15T17:58:18;13.85;;;8.73;;
63945;SDS011;50122;56.330;43.838;2023-02-15T18:00:59;12.88;;;8.15;;
63945;SDS011;50122;56.330;43.838;2023-02-15T18:03:51;13.88;;;8.82;;
63945;SDS011;50122;56.330;43.838;2023-02-15T18:06:44;12.02;;;8.02;;
63945;SDS011;50122;56.330;43.838;2023-02-15T18:09:32;13.25;;;7.68;;
63945;SDS011;50122;56.330;43.838;2023-02-15T18:12:21;11.98;;;7.45;;
63945;SDS011;50122;56.330;43.838;2023-02-15T18:14:55;12.57;;;7.70;;
63945;SDS011;50122;56.330;43.838;2023-02-15T18:17:30;13.40;;;8.75;;
63945;SDS011;50122;56.330;43.838;2023-02-15T18:20:19;12.23;;;8.05;;
63945;SDS011;50122;56.330;43.838;2023-02-15T18:25:23;11.43;;;7.60;;
63945;SDS011;50122;56.330;43.838;2023-02-15T18:27:51;11.43;;;7.63;;
63945;SDS011;50122;56.330;43.838;2023-02-15T18:30:23;13.50;;;8.55;;
63945;SDS011;50122;56.330;43.838;2023-02-15T18:32:58;11.18;;;7.78;;
63945;SDS011;50122;56.330;43.838;2023-02-15T18:35:42;12.80;;;8.15;;
63945;SDS011;50122;56.330;43.838;2023-02-15T18:38:13;11.52;;;7.22;;
63945;SDS011;50122;56.330;43.838;2023-02-15T18:40:40;13.65;;;7.50;;
63945;SDS011;50122;56.330;43.838;2023-02-15T18:43:13;10.27;;;7.00;;
63945;SDS011;50122;56.330;43.838;2023-02-15T18:45:45;12.45;;;6.97;;
63945;SDS011;50122;56.330;43.838;2023-02-15T18:48:11;9.50;;;5.97;;
63945;SDS011;50122;56.330;43.838;2023-02-15T18:50:41;9.50;;;6.57;;
63945;SDS011;50122;56.330;43.838;2023-02-15T18:53:17;9.23;;;5.97;;
63945;SDS011;50122;56.330;43.838;2023-02-15T18:55:50;11.45;;;6.70;;
63945;SDS011;50122;56.330;43.838;2023-02-15T18:58:18;10.05;;;6.30;;
63945;SDS011;50122;56.330;43.838;2023-02-15T19:00:52;10.68;;;7.00;;
63945;SDS011;50122;56.330;43.838;2023-02-15T19:03:20;10.55;;;6.22;;
63945;SDS011;50122;56.330;43.838;2023-02-15T19:05:55;8.18;;;5.68;;
63945;SDS011;50122;56.330;43.838;2023-02-15T19:08:22;7.97;;;4.95;;
63945;SDS011;50122;56.330;43.838;2023-02-15T19:11:19;8.07;;;5.20;;
63945;SDS011;50122;56.330;43.838;2023-02-15T19:13:54;9.10;;;5.97;;
63945;SDS011;50122;56.330;43.838;2023-02-15T19:16:28;8.88;;;5.85;;
63945;SDS011;50122;56.330;43.838;2023-02-15T19:19:00;8.38;;;5.70;;
63945;SDS011;50122;56.330;43.838;2023-02-15T19:21:27;8.77;;;5.25;;
63945;SDS011;50122;56.330;43.838;2023-02-15T19:24:02;7.45;;;4.85;;
63945;SDS011;50122;56.330;43.838;2023-02-15T19:27:05;9.30;;;5.97;;
63945;SDS011;50122;56.330;43.838;2023-02-15T19:29:35;8.48;;;5.38;;
63945;SDS011;50122;56.330;43.838;2023-02-15T19:32:16;10.48;;;6.03;;
63945;SDS011;50122;56.330;43.838;2023-02-15T19:34:47;8.32;;;5.28;;
63945;SDS011;50122;56.330;43.838;2023-02-15T19:37:23;12.55;;;6.07;;
63945;SDS011;50122;56.330;43.838;2023-02-15T19:39:59;9.25;;;5.53;;
63945;SDS011;50122;56.330;43.838;2023-02-15T19:42:38;10.18;;;6.57;;
63945;SDS011;50122;56.330;43.838;2023-02-15T19:45:21;9.57;;;6.05;;
63945;SDS011;50122;56.330;43.838;2023-02-15T19:47:53;10.13;;;6.40;;
63945;SDS011;50122;56.330;43.838;2023-02-15T19:50:25;10.38;;;6.75;;
63945;SDS011;50122;56.330;43.838;2023-02-15T19:53:21;12.25;;;6.90;;
63945;SDS011;50122;56.330;43.838;2023-02-15T19:55:53;10.07;;;6.22;;
63945;SDS011;50122;56.330;43.838;2023-02-15T19:58:24;12.27;;;6.40;;
63945;SDS011;50122;56.330;43.838;2023-02-15T20:00:51;10.13;;;5.97;;
63945;SDS011;50122;56.330;43.838;2023-02-15T20:03:31;9.52;;;5.78;;
63945;SDS011;50122;56.330;43.838;2023-02-15T20:06:02;11.77;;;6.10;;
63945;SDS011;50122;56.330;43.838;2023-02-15T20:08:29;8.77;;;5.55;;
63945;SDS011;50122;56.330;43.838;2023-02-15T20:11:13;10.20;;;6.43;;
63945;SDS011;50122;56.330;43.838;2023-02-15T20:13:40;8.43;;;5.90;;
63945;SDS011;50122;56.330;43.838;2023-02-15T20:16:09;9.23;;;6.13;;
63945;SDS011;50122;56.330;43.838;2023-02-15T20:18:40;10.48;;;6.22;;
63945;SDS011;50122;56.330;43.838;2023-02-15T20:21:12;10.15;;;6.20;;
63945;SDS011;50122;56.330;43.838;2023-02-15T20:23:58;9.25;;;6.20;;
63945;SDS011;50122;56.330;43.838;2023-02-15T20:26:35;10.57;;;5.82;;
63945;SDS011;50122;56.330;43.838;2023-02-15T20:29:17;8.50;;;5.63;;
63945;SDS011;50122;56.330;43.838;2023-02-15T20:31:47;10.18;;;6.20;;
63945;SDS011;50122;56.330;43.838;2023-02-15T20:34:14;9.93;;;6.60;;
63945;SDS011;50122;56.330;43.838;2023-02-15T20:36:41;10.75;;;6.38;;
63945;SDS011;50122;56.330;43.838;2023-02-15T20:39:16;9.50;;;5.00;;
63945;SDS011;50122;56.330;43.838;2023-02-15T20:41:55;11.23;;;6.25;;
63945;SDS011;50122;56.330;43.838;2023-02-15T20:44:32;8.85;;;6.05;;
63945;SDS011;50122;56.330;43.838;2023-02-15T20:47:05;8.00;;;5.63;;
63945;SDS011;50122;56.330;43.838;2023-02-15T20:49:35;9.73;;;6.22;;
63945;SDS011;50122;56.330;43.838;2023-02-15T20:52:04;10.05;;;5.95;;
63945;SDS011;50122;56.330;43.838;2023-02-15T20:54:49;10.60;;;6.38;;
63945;SDS011;50122;56.330;43.838;2023-02-15T20:57:29;8.77;;;5.30;;
63945;SDS011;50122;56.330;43.838;2023-02-15T20:59:59;7.82;;;5.15;;
63945;SDS011;50122;56.330;43.838;2023-02-15T21:02:29;9.43;;;6.38;;
63945;SDS011;50122;56.330;43.838;2023-02-15T21:04:59;11.00;;;6.75;;
63945;SDS011;50122;56.330;43.838;2023-02-15T21:07:27;9.27;;;6.30;;
63945;SDS011;50122;56.330;43.838;2023-02-15T21:09:53;7.78;;;5.05;;
63945;SDS011;50122;56.330;43.838;2023-02-15T21:12:20;9.63;;;6.30;;
63945;SDS011;50122;56.330;43.838;2023-02-15T21:14:48;7.40;;;4.82;;
63945;SDS011;50122;56.330;43.838;2023-02-15T21:17:15;8.63;;;5.70;;
63945;SDS011;50122;56.330;43.838;2023-02-15T21:19:42;9.52;;;5.97;;
63945;SDS011;50122;56.330;43.838;2023-02-15T21:22:10;6.97;;;4.50;;
63945;SDS011;50122;56.330;43.838;2023-02-15T21:24:39;9.23;;;5.93;;
63945;SDS011;50122;56.330;43.838;2023-02-15T21:27:13;9.07;;;5.68;;
63945;SDS011;50122;56.330;43.838;2023-02-15T21:29:41;6.93;;;4.80;;
63945;SDS011;50122;56.330;43.838;2023-02-15T21:32:08;9.30;;;6.22;;
63945;SDS011;50122;56.330;43.838;2023-02-15T21:34:36;8.88;;;5.25;;
63945;SDS011;50122;56.330;43.838;2023-02-15T21:37:02;9.05;;;5.68;;
63945;SDS011;50122;56.330;43.838;2023-02-15T21:39:31;9.65;;;6.38;;
63945;SDS011;50122;56.330;43.838;2023-02-15T21:42:01;9.13;;;6.07;;
63945;SDS011;50122;56.330;43.838;2023-02-15T21:44:50;10.63;;;5.95;;
63945;SDS011;50122;56.330;43.838;2023-02-15T21:47:35;8.85;;;5.88;;
63945;SDS011;50122;56.330;43.838;2023-02-15T21:50:18;9.85;;;6.30;;
63945;SDS011;50122;56.330;43.838;2023-02-15T21:53:07;10.57;;;6.40;;
63945;SDS011;50122;56.330;43.838;2023-02-15T21:55:36;9.65;;;6.30;;
63945;SDS011;50122;56.330;43.838;2023-02-15T21:58:03;10.88;;;7.00;;
63945;SDS011;50122;56.330;43.838;2023-02-15T22:00:30;9.80;;;6.05;;
63945;SDS011;50122;56.330;43.838;2023-02-15T22:02:58;12.88;;;6.38;;
63945;SDS011;50122;56.330;43.838;2023-02-15T22:05:30;8.77;;;6.10;;
63945;SDS011;50122;56.330;43.838;2023-02-15T22:07:59;11.82;;;6.78;;
63945;SDS011;50122;56.330;43.838;2023-02-15T22:10:27;9.35;;;5.90;;
63945;SDS011;50122;56.330;43.838;2023-02-15T22:12:56;9.77;;;5.78;;
63945;SDS011;50122;56.330;43.838;2023-02-15T22:15:26;9.05;;;5.95;;
63945;SDS011;50122;56.330;43.838;2023-02-15T22:17:59;11.02;;;6.30;;
63945;SDS011;50122;56.330;43.838;2023-02-15T22:20:26;11.35;;;6.22;;
63945;SDS011;50122;56.330;43.838;2023-02-15T22:22:52;9.65;;;6.50;;
63945;SDS011;50122;56.330;43.838;2023-02-15T22:25:20;9.25;;;5.85;;
63945;SDS011;50122;56.330;43.838;2023-02-15T22:27:49;9.27;;;6.47;;
63945;SDS011;50122;56.330;43.838;2023-02-15T22:32:47;9.50;;;5.72;;
63945;SDS011;50122;56.330;43.838;2023-02-15T22:35:33;11.02;;;6.53;;
63945;SDS011;50122;56.330;43.838;2023-02-15T22:38:00;10.95;;;6.70;;
63945;SDS011;50122;56.330;43.838;2023-02-15T22:40:31;9.90;;;6.57;;
63945;SDS011;50122;56.330;43.838;2023-02-15T22:42:59;9.98;;;6.47;;
63945;SDS011;50122;56.330;43.838;2023-02-15T22:45:30;9.50;;;6.07;;
63945;SDS011;50122;56.330;43.838;2023-02-15T22:47:58;10.73;;;6.57;;
63945;SDS011;50122;56.330;43.838;2023-02-15T22:50:26;10.43;;;6.47;;
63945;SDS011;50122;56.330;43.838;2023-02-15T22:52:58;10.73;;;6.72;;
63945;SDS011;50122;56.330;43.838;2023-02-15T22:55:27;9.48;;;5.97;;
63945;SDS011;50122;56.330;43.838;2023-02-15T22:57:57;10.38;;;6.78;;
63945;SDS011;50122;56.330;43.838;2023-02-15T23:00:25;9.43;;;6.28;;
63945;SDS011;50122;56.330;43.838;2023-02-15T23:02:54;10.80;;;6.57;;
63945;SDS011;50122;56.330;43.838;2023-02-15T23:05:26;10.82;;;6.75;;
63945;SDS011;50122;56.330;43.838;2023-02-15T23:07:55;9.70;;;6.40;;
63945;SDS011;50122;56.330;43.838;2023-02-15T23:10:22;11.40;;;7.10;;
63945;SDS011;50122;56.330;43.838;2023-02-15T23:12:55;10.88;;;6.25;;
63945;SDS011;50122;56.330;43.838;2023-02-15T23:15:42;11.65;;;6.97;;
63945;SDS011;50122;56.330;43.838;2023-02-15T23:18:14;13.05;;;7.28;;
63945;SDS011;50122;56.330;43.838;2023-02-15T23:21:02;11.05;;;7.13;;
63945;SDS011;50122;56.330;43.838;2023-02-15T23:23:36;10.38;;;6.68;;
63945;SDS011;50122;56.330;43.838;2023-02-15T23:26:06;9.35;;;6.22;;
63945;SDS011;50122;56.330;43.838;2023-02-15T23:28:42;11.02;;;6.82;;
63945;SDS011;50122;56.330;43.838;2023-02-15T23:31:20;11.38;;;7.18;;
63945;SDS011;50122;56.330;43.838;2023-02-15T23:33:58;12.75;;;7.40;;
63945;SDS011;50122;56.330;43.838;2023-02-15T23:36:29;15.15;;;6.93;;
63945;SDS011;50122;56.330;43.838;2023-02-15T23:39:00;12.23;;;7.18;;
63945;SDS011;50122;56.330;43.838;2023-02-15T23:44:24;10.40;;;6.53;;
63945;SDS011;50122;56.330;43.838;2023-02-15T23:46:51;9.25;;;6.05;;
63945;SDS011;50122;56.330;43.838;2023-02-15T23:49:18;11.32;;;7.25;;
63945;SDS011;50122;56.330;43.838;2023-02-15T23:51:52;12.38;;;7.57;;
63945;SDS011;50122;56.330;43.838;2023-02-15T23:54:22;10.23;;;6.57;;
63945;SDS011;50122;56.330;43.838;2023-02-15T23:56:51;11.05;;;6.35;;
63945;SDS011;50122;56.330;43.838;2023-02-15T23:59:21;10.55;;;6.55;;
